Time;durP1;ratioP1;P1;durP2;ratioP2;P2;SDS_P1;SDS_P2;PMS_P1;PMS_P2;Temp;Humidity;BMP_temperature;BMP_pressure;BME280_temperature;BME280_humidity;BME280_pressure;Samples;Min_cycle;Max_cycle;Signal;HPM_P1;HPM_P2
2023/08/16 00:00:59;;;;;;;;;;;16.10;99.90;;;;;;5075066;28;20646;-60
2023/08/16 00:03:25;;;;;;;6.88;3.15;;;16.20;99.90;;;;;;5076288;28;19927;-61
2023/08/16 00:05:52;;;;;;;10.80;4.55;;;16.20;99.90;;;;;;5092290;28;20054;-60
2023/08/16 00:08:18;;;;;;;9.30;3.72;;;16.20;99.90;;;;;;5074933;28;20527;-59
2023/08/16 00:10:44;;;;;;;;;;;16.20;99.90;;;;;;5086955;28;20039;-63
2023/08/16 00:13:09;;;;;;;9.73;3.60;;;16.20;99.90;;;;;;5096177;28;19926;-60
2023/08/16 00:15:35;;;;;;;8.85;4.32;;;16.20;99.90;;;;;;5090993;28;20131;-61
2023/08/16 00:18:00;;;;;;;;;;;16.20;99.90;;;;;;5068527;28;20608;-62
2023/08/16 00:20:27;;;;;;;13.23;4.57;;;16.20;99.90;;;;;;5075618;28;20529;-60
2023/08/16 00:22:54;;;;;;;10.48;4.18;;;16.20;99.90;;;;;;5062910;28;20041;-61
2023/08/16 00:25:20;;;;;;;5.90;4.25;;;16.20;99.90;;;;;;5064288;28;20040;-61
2023/08/16 00:27:45;;;;;;;7.03;4.68;;;16.20;99.90;;;;;;5076863;28;20040;-62
2023/08/16 00:30:11;;;;;;;;;;;16.20;99.90;;;;;;5064040;28;20044;-60
2023/08/16 00:32:37;;;;;;;10.75;4.32;;;16.20;99.90;;;;;;5070513;28;20011;-62
2023/08/16 00:35:04;;;;;;;7.38;4.68;;;16.20;99.90;;;;;;5061471;28;20204;-61
2023/08/16 00:37:30;;;;;;;9.00;4.40;;;16.20;99.90;;;;;;5061258;28;20044;-60
2023/08/16 00:39:56;;;;;;;;;;;16.20;99.90;;;;;;5060785;28;20549;-62
2023/08/16 00:42:22;;;;;;;10.15;4.70;;;16.20;99.90;;;;;;5063808;28;20621;-63
2023/08/16 00:44:47;;;;;;;6.38;4.45;;;16.10;99.90;;;;;;5065513;28;20109;-62
2023/08/16 00:47:13;;;;;;;;;;;16.10;99.90;;;;;;5079032;28;20068;-60
2023/08/16 00:49:40;;;;;;;9.65;4.25;;;16.10;99.90;;;;;;5071585;28;20318;-59
2023/08/16 00:52:07;;;;;;;15.40;4.32;;;16.10;99.90;;;;;;5071450;28;20492;-62
2023/08/16 00:54:33;;;;;;;9.77;4.90;;;16.10;99.90;;;;;;5068772;28;20127;-59
2023/08/16 00:56:59;;;;;;;;;;;16.10;99.90;;;;;;5066213;28;20189;-62
2023/08/16 00:59:26;;;;;;;10.80;4.10;;;16.10;99.90;;;;;;5068349;28;20346;-62
2023/08/16 01:01:52;;;;;;;19.95;4.53;;;16.00;99.90;;;;;;5070260;28;20043;-60
2023/08/16 01:04:18;;;;;;;;;;;16.00;99.90;;;;;;5064451;28;20037;-63
2023/08/16 01:06:44;;;;;;;8.52;4.28;;;16.00;99.90;;;;;;5076491;28;20031;-60
2023/08/16 01:09:09;;;;;;;;;;;16.00;99.90;;;;;;5072369;28;20488;-61
2023/08/16 01:11:35;;;;;;;7.55;3.47;;;16.00;99.90;;;;;;5070222;28;20407;-62
2023/08/16 01:14:06;;;;;;;;;;;16.00;99.90;;;;;;5064829;28;20058;-62
2023/08/16 01:16:34;;;;;;;8.50;3.65;;;16.00;99.90;;;;;;5063585;28;20015;-63
2023/08/16 01:19:01;;;;;;;5.53;4.00;;;16.00;99.90;;;;;;5058844;28;20041;-61
2023/08/16 01:21:30;;;;;;;5.90;4.28;;;16.00;99.90;;;;;;5073283;28;20043;-60
2023/08/16 01:24:14;;;;;;;16.83;3.78;;;16.00;99.90;;;;;;5081708;28;20047;-60
2023/08/16 01:26:42;;;;;;;11.57;3.90;;;16.00;99.90;;;;;;5076005;28;20037;-60
2023/08/16 01:29:09;;;;;;;9.95;5.30;;;16.00;99.90;;;;;;5075997;28;20507;-63
2023/08/16 01:31:34;;;;;;;11.15;4.68;;;16.00;99.90;;;;;;5070881;28;20044;-62
2023/08/16 01:34:00;;;;;;;;;;;16.00;99.90;;;;;;5075359;28;20999;-60
2023/08/16 01:36:27;;;;;;;13.25;4.60;;;16.10;99.90;;;;;;5071128;28;20359;-59
2023/08/16 01:38:54;;;;;;;7.68;4.15;;;16.10;99.90;;;;;;5080110;28;20044;-60
2023/08/16 01:41:22;;;;;;;12.15;4.93;;;16.10;99.90;;;;;;5071782;28;20078;-60
2023/08/16 01:43:49;;;;;;;11.85;4.80;;;16.10;99.90;;;;;;5062001;28;20037;-59
2023/08/16 01:46:15;;;;;;;5.25;4.15;;;16.20;99.90;;;;;;5060239;28;20082;-63
2023/08/16 01:48:43;;;;;;;6.18;4.68;;;16.20;99.90;;;;;;5068881;28;20047;-61
2023/08/16 01:51:09;;;;;;;9.27;3.85;;;16.20;99.90;;;;;;5073165;28;20036;-63
2023/08/16 01:53:35;;;;;;;;;;;16.10;99.90;;;;;;5080545;28;20048;-62
2023/08/16 01:56:01;;;;;;;8.50;4.35;;;16.20;99.90;;;;;;5088905;28;19920;-62
2023/08/16 01:58:26;;;;;;;;;;;16.20;99.90;;;;;;5078124;28;20581;-59
2023/08/16 02:00:52;;;;;;;16.00;4.32;;;16.10;99.90;;;;;;5068219;28;19932;-60
2023/08/16 02:03:17;;;;;;;14.40;4.65;;;16.20;99.90;;;;;;5059915;28;20036;-62
2023/08/16 02:05:43;;;;;;;;;;;16.20;99.90;;;;;;5062872;28;20463;-62
2023/08/16 02:08:10;;;;;;;8.73;4.80;;;16.20;99.90;;;;;;5065664;28;19960;-62
2023/08/16 02:10:36;;;;;;;8.13;3.90;;;16.20;99.90;;;;;;5066408;28;20131;-60
2023/08/16 02:13:02;;;;;;;8.75;4.63;;;16.20;99.90;;;;;;5069561;28;20042;-60
2023/08/16 02:15:28;;;;;;;;;;;16.20;99.90;;;;;;5072811;28;20037;-61
2023/08/16 02:17:54;;;;;;;12.18;4.47;;;16.20;99.90;;;;;;5059513;28;20417;-63
2023/08/16 02:20:19;;;;;;;;;;;16.20;99.90;;;;;;5059870;28;20072;-60
2023/08/16 02:22:45;;;;;;;8.15;4.38;;;16.20;99.90;;;;;;5069789;28;19969;-62
2023/08/16 02:25:13;;;;;;;14.73;3.90;;;16.20;99.90;;;;;;5082254;28;20466;-60
2023/08/16 02:27:40;;;;;;;7.70;4.38;;;16.20;99.90;;;;;;5077468;28;20036;-61
2023/08/16 02:30:06;;;;;;;9.77;4.50;;;16.20;99.90;;;;;;5077771;28;20093;-63
2023/08/16 02:32:33;;;;;;;11.30;4.32;;;16.20;99.90;;;;;;5063659;28;20144;-62
2023/08/16 02:34:59;;;;;;;9.25;4.95;;;16.20;99.90;;;;;;5062616;28;20651;-62
2023/08/16 02:37:25;;;;;;;6.50;4.55;;;16.20;99.90;;;;;;5076400;28;20040;-61
2023/08/16 02:39:51;;;;;;;9.70;4.10;;;16.20;99.90;;;;;;5058413;28;20041;-61
2023/08/16 02:42:17;;;;;;;18.70;4.53;;;16.20;99.90;;;;;;5059559;28;20536;-60
2023/08/16 02:44:42;;;;;;;;;;;16.10;99.90;;;;;;5074175;28;20129;-63
2023/08/16 02:47:08;;;;;;;11.23;4.72;;;16.10;99.90;;;;;;5063013;28;19920;-59
2023/08/16 02:49:34;;;;;;;10.88;4.40;;;16.10;99.90;;;;;;5071074;28;20119;-62
2023/08/16 02:51:59;;;;;;;;;;;16.10;99.90;;;;;;5068487;28;20120;-59
2023/08/16 02:54:25;;;;;;;10.98;4.00;;;16.10;99.90;;;;;;5060950;28;19917;-62
2023/08/16 02:56:51;;;;;;;9.52;4.65;;;16.10;99.90;;;;;;5059761;28;20503;-62
2023/08/16 02:59:17;;;;;;;13.35;4.65;;;16.20;99.90;;;;;;5060159;28;20044;-62
2023/08/16 03:01:42;;;;;;;;;;;16.10;99.90;;;;;;5060769;28;20071;-60
2023/08/16 03:04:10;;;;;;;11.48;3.65;;;16.10;99.90;;;;;;5074634;28;19920;-61
2023/08/16 03:06:35;;;;;;;9.07;3.78;;;16.10;99.90;;;;;;5061624;28;20525;-61
2023/08/16 03:09:01;;;;;;;;;;;16.10;99.90;;;;;;5066769;28;20044;-60
2023/08/16 03:11:26;;;;;;;9.02;3.83;;;16.10;99.90;;;;;;5057567;28;20549;-60
2023/08/16 03:13:52;;;;;;;7.85;4.22;;;16.10;99.90;;;;;;5070495;28;20048;-61
2023/08/16 03:16:17;;;;;;;;;;;16.10;99.90;;;;;;5065086;28;20520;-60
2023/08/16 03:18:45;;;;;;;19.42;5.30;;;16.10;99.90;;;;;;5068392;28;19918;-61
2023/08/16 03:21:11;;;;;;;7.38;4.72;;;16.10;99.90;;;;;;5050166;28;20047;-61
2023/08/16 03:23:36;;;;;;;;;;;16.00;99.90;;;;;;5076268;28;20045;-61
2023/08/16 03:26:02;;;;;;;7.63;4.10;;;16.10;99.90;;;;;;5077624;28;19931;-60
2023/08/16 03:28:28;;;;;;;;;;;16.00;99.90;;;;;;5066380;28;20036;-61
2023/08/16 03:30:54;;;;;;;20.98;4.43;;;16.00;99.90;;;;;;5072180;28;20003;-61
2023/08/16 03:33:20;;;;;;;13.63;5.03;;;16.00;99.90;;;;;;5062355;28;20044;-61
2023/08/16 03:35:45;;;;;;;;;;;16.00;99.90;;;;;;5074578;28;20463;-61
2023/08/16 03:38:11;;;;;;;11.73;4.45;;;16.00;99.90;;;;;;5066546;28;19926;-60
2023/08/16 03:40:36;;;;;;;13.95;4.38;;;16.00;99.90;;;;;;5073803;28;20434;-61
2023/08/16 03:43:02;;;;;;;10.73;4.65;;;16.00;99.90;;;;;;5073413;28;20043;-60
2023/08/16 03:45:28;;;;;;;;;;;16.00;99.90;;;;;;5071942;28;20036;-62
2023/08/16 03:47:53;;;;;;;6.30;3.22;;;16.00;99.90;;;;;;5064086;28;19916;-62
2023/08/16 03:50:19;;;;;;;11.32;4.45;;;16.00;99.90;;;;;;5075054;28;20408;-60
2023/08/16 03:52:45;;;;;;;;;;;15.90;99.90;;;;;;5065894;28;20051;-63
2023/08/16 03:55:10;;;;;;;6.13;3.90;;;16.00;99.90;;;;;;5076725;28;19920;-62
2023/08/16 03:57:36;;;;;;;;;;;15.90;99.90;;;;;;5065196;28;20048;-62
2023/08/16 04:00:04;;;;;;;9.55;4.45;;;15.90;99.90;;;;;;5073162;28;20473;-63
2023/08/16 04:02:29;;;;;;;8.30;4.25;;;15.90;99.90;;;;;;5062581;28;20054;-63
2023/08/16 04:04:55;;;;;;;;;;;15.90;99.90;;;;;;5072690;28;20028;-63
2023/08/16 04:07:21;;;;;;;7.78;4.30;;;15.90;99.90;;;;;;5069976;28;19935;-63
2023/08/16 04:09:47;;;;;;;13.93;4.78;;;15.90;99.90;;;;;;5075026;28;20051;-63
2023/08/16 04:12:12;;;;;;;;;;;15.90;99.90;;;;;;5085991;28;20036;-63
2023/08/16 04:14:38;;;;;;;9.60;4.50;;;15.90;99.90;;;;;;5075740;28;19922;-63
2023/08/16 04:17:03;;;;;;;;;;;15.90;99.90;;;;;;5065889;28;20040;-63
2023/08/16 04:19:31;;;;;;;11.93;4.05;;;15.90;99.90;;;;;;5078520;28;19922;-63
2023/08/16 04:21:56;;;;;;;7.35;4.32;;;15.90;99.90;;;;;;5065101;28;20094;-63
2023/08/16 04:24:22;;;;;;;;;;;15.90;99.90;;;;;;5070035;28;20048;-63
2023/08/16 04:26:47;;;;;;;8.70;3.95;;;15.90;99.90;;;;;;5075106;28;19924;-63
2023/08/16 04:29:13;;;;;;;13.98;4.85;;;15.90;99.90;;;;;;5067301;28;20063;-62
2023/08/16 04:31:39;;;;;;;9.35;4.35;;;16.00;99.90;;;;;;5077864;28;20036;-63
2023/08/16 04:34:04;;;;;;;13.00;4.13;;;16.00;99.90;;;;;;5072556;28;20723;-62
2023/08/16 04:36:30;;;;;;;19.52;4.30;;;16.00;99.90;;;;;;5072893;28;20097;-63
2023/08/16 04:38:56;;;;;;;;;;;15.90;99.90;;;;;;5072067;28;20044;-62
2023/08/16 04:41:21;;;;;;;9.30;4.00;;;16.00;99.90;;;;;;5067812;28;20338;-62
2023/08/16 04:43:47;;;;;;;;;;;16.00;99.90;;;;;;5067898;28;20037;-62
2023/08/16 04:46:12;;;;;;;4.80;3.67;;;16.10;99.90;;;;;;5081375;28;19927;-63
2023/08/16 04:48:38;;;;;;;;;;;16.10;99.90;;;;;;5076122;28;20048;-62
2023/08/16 04:51:04;;;;;;;11.93;4.40;;;16.10;99.90;;;;;;5075273;28;19926;-62
2023/08/16 04:53:29;;;;;;;;;;;16.10;99.90;;;;;;5077122;28;20120;-63
2023/08/16 04:55:55;;;;;;;15.75;4.75;;;16.10;99.90;;;;;;5075532;28;19955;-63
2023/08/16 04:58:20;;;;;;;7.93;4.57;;;16.10;99.90;;;;;;5083480;28;20020;-62
2023/08/16 05:00:46;;;;;;;;;;;16.10;99.90;;;;;;5070884;28;20089;-62
2023/08/16 05:03:12;;;;;;;12.07;4.60;;;16.10;99.90;;;;;;5071078;28;20387;-63
2023/08/16 05:05:37;;;;;;;;;;;16.20;99.90;;;;;;5067937;28;20044;-63
2023/08/16 05:08:03;;;;;;;11.82;4.72;;;16.20;99.90;;;;;;5075298;28;19970;-62
2023/08/16 05:10:29;;;;;;;13.85;4.68;;;16.20;99.90;;;;;;5080313;28;20032;-62
2023/08/16 05:12:54;;;;;;;;;;;16.20;99.90;;;;;;5097957;28;20028;-69
2023/08/16 05:15:20;;;;;;;9.25;3.75;;;16.30;99.90;;;;;;5082341;28;19920;-63
2023/08/16 05:17:46;;;;;;;11.13;4.28;;;16.30;99.90;;;;;;5065527;28;20628;-61
2023/08/16 05:20:12;;;;;;;17.08;4.50;;;16.30;99.90;;;;;;5081307;28;20085;-63
2023/08/16 05:22:37;;;;;;;;;;;16.30;99.90;;;;;;5078931;28;20036;-59
2023/08/16 05:25:03;;;;;;;11.00;4.57;;;16.30;99.90;;;;;;5085747;28;19939;-61
2023/08/16 05:27:29;;;;;;;;;;;16.40;99.90;;;;;;5092552;28;20050;-63
2023/08/16 05:29:54;;;;;;;13.75;4.80;;;16.40;99.90;;;;;;5097958;28;19925;-64
2023/08/16 05:32:21;;;;;;;12.88;4.72;;;16.40;99.90;;;;;;5077836;28;20040;-63
2023/08/16 05:34:47;;;;;;;9.43;4.43;;;16.40;99.90;;;;;;5074950;28;20040;-63
2023/08/16 05:37:12;;;;;;;;;;;16.40;99.90;;;;;;5084407;28;20047;-62
2023/08/16 05:39:39;;;;;;;16.77;5.32;;;16.40;99.90;;;;;;5080818;28;19923;-63
2023/08/16 05:42:05;;;;;;;11.25;4.35;;;16.40;99.90;;;;;;5072681;28;20040;-62
2023/08/16 05:44:31;;;;;;;6.55;4.18;;;16.40;99.90;;;;;;5090219;28;20035;-62
2023/08/16 05:46:56;;;;;;;;;;;16.40;99.90;;;;;;5092528;28;20758;-63
2023/08/16 05:49:22;;;;;;;9.25;4.70;;;16.50;99.90;;;;;;5076315;28;19920;-60
2023/08/16 05:51:48;;;;;;;11.27;4.53;;;16.50;99.90;;;;;;5067019;28;20120;-61
2023/08/16 05:54:13;;;;;;;11.88;5.07;;;16.50;99.90;;;;;;5064253;28;20446;-61
2023/08/16 05:56:39;;;;;;;;;;;16.60;99.90;;;;;;5075264;28;20567;-61
2023/08/16 05:59:04;;;;;;;5.03;4.28;;;16.60;99.90;;;;;;5068567;28;20333;-63
2023/08/16 06:01:30;;;;;;;;;;;16.60;99.90;;;;;;5062970;28;20067;-61
2023/08/16 06:03:56;;;;;;;10.25;5.30;;;16.70;99.90;;;;;;5068222;28;19928;-62
2023/08/16 06:06:21;;;;;;;13.50;5.30;;;16.70;99.90;;;;;;5063053;28;20068;-62
2023/08/16 06:08:47;;;;;;;10.13;4.65;;;16.80;99.90;;;;;;5067869;28;20032;-62
2023/08/16 06:11:12;;;;;;;;;;;16.80;99.90;;;;;;5092560;28;20039;-62
2023/08/16 06:13:38;;;;;;;10.75;4.55;;;16.80;99.90;;;;;;5099511;28;19916;-61
2023/08/16 06:16:04;;;;;;;;;;;16.90;99.90;;;;;;5081471;28;20047;-61
2023/08/16 06:18:29;;;;;;;10.00;4.32;;;16.90;99.90;;;;;;5071110;28;19942;-61
2023/08/16 06:20:55;;;;;;;9.43;4.70;;;16.90;99.90;;;;;;5097505;28;20406;-61
2023/08/16 06:23:20;;;;;;;;;;;16.90;99.90;;;;;;5084544;28;20020;-62
2023/08/16 06:25:46;;;;;;;6.97;4.60;;;16.90;99.90;;;;;;5069425;28;19924;-61
2023/08/16 06:28:12;;;;;;;;;;;16.90;99.90;;;;;;5087993;28;20035;-61
2023/08/16 06:30:37;;;;;;;12.35;5.03;;;17.00;99.90;;;;;;5088173;28;19917;-61
2023/08/16 06:33:07;;;;;;;7.95;4.80;;;17.00;99.90;;;;;;5080442;28;20067;-61
2023/08/16 06:35:33;;;;;;;11.25;5.40;;;17.00;99.90;;;;;;5070499;28;20530;-61
2023/08/16 06:37:58;;;;;;;;;;;17.00;99.90;;;;;;5093141;28;20031;-62
2023/08/16 06:40:24;;;;;;;9.70;5.32;;;17.10;99.90;;;;;;5084522;28;19920;-61
2023/08/16 06:42:49;;;;;;;;;;;17.10;99.90;;;;;;5064560;28;20138;-61
2023/08/16 06:45:15;;;;;;;16.50;5.13;;;17.10;99.90;;;;;;5076070;28;19930;-62
2023/08/16 06:47:42;;;;;;;12.27;5.15;;;17.10;99.90;;;;;;5076636;28;20048;-60
2023/08/16 06:50:08;;;;;;;10.38;5.85;;;17.10;99.90;;;;;;5074739;28;20039;-62
2023/08/16 06:52:34;;;;;;;7.55;4.95;;;17.10;99.90;;;;;;5075403;28;20769;-62
2023/08/16 06:55:00;;;;;;;;;;;17.20;99.90;;;;;;5089897;28;20105;-61
2023/08/16 06:57:26;;;;;;;10.57;5.80;;;17.30;99.90;;;;;;5073451;28;19992;-62
2023/08/16 06:59:51;;;;;;;;;;;17.30;99.90;;;;;;5094792;28;20036;-62
2023/08/16 07:02:17;;;;;;;12.63;5.90;;;17.40;99.90;;;;;;5094184;28;19924;-63
2023/08/16 07:04:43;;;;;;;13.52;5.22;;;17.40;99.90;;;;;;5082253;28;20965;-63
2023/08/16 07:07:09;;;;;;;;;;;17.50;99.90;;;;;;5074480;28;20043;-63
2023/08/16 07:09:35;;;;;;;10.68;4.80;;;17.50;99.90;;;;;;5071311;28;19931;-63
2023/08/16 07:12:01;;;;;;;13.68;5.72;;;17.60;99.90;;;;;;5078832;28;20032;-62
2023/08/16 07:14:27;;;;;;;13.10;6.03;;;17.60;99.90;;;;;;5074332;28;20048;-62
2023/08/16 07:16:52;;;;;;;8.93;5.20;;;17.60;99.90;;;;;;5070395;28;20089;-62
2023/08/16 07:19:18;;;;;;;9.35;5.47;;;17.70;99.90;;;;;;5073658;28;20036;-63
2023/08/16 07:21:49;;;;;;;15.82;6.63;;;17.80;99.90;;;;;;5090588;28;20040;-60
2023/08/16 07:24:14;;;;;;;9.07;6.13;;;17.90;99.90;;;;;;5090477;28;20437;-63
2023/08/16 07:26:40;;;;;;;;;;;18.00;99.90;;;;;;5099060;28;20058;-60
2023/08/16 07:29:06;;;;;;;11.82;5.30;;;18.00;99.90;;;;;;5081726;28;19927;-62
2023/08/16 07:31:32;;;;;;;10.10;5.57;;;18.20;99.90;;;;;;5071634;28;20041;-61
2023/08/16 07:33:58;;;;;;;;;;;18.30;99.90;;;;;;5077661;28;20032;-61
2023/08/16 07:36:23;;;;;;;9.50;5.60;;;18.40;99.90;;;;;;5075007;28;19971;-60
2023/08/16 07:38:49;;;;;;;12.02;7.13;;;18.50;99.90;;;;;;5070458;28;20052;-61
2023/08/16 07:41:15;;;;;;;16.08;7.63;;;18.70;99.90;;;;;;5078764;28;20040;-62
2023/08/16 07:43:41;;;;;;;16.65;7.22;;;18.90;99.90;;;;;;5066638;28;20072;-61
2023/08/16 07:46:06;;;;;;;;;;;19.10;99.90;;;;;;5065878;28;20194;-62
2023/08/16 07:48:32;;;;;;;19.05;7.38;;;19.30;99.90;;;;;;5068622;28;19959;-61
2023/08/16 07:50:58;;;;;;;;;;;19.50;99.90;;;;;;5082323;28;20189;-61
2023/08/16 07:53:23;;;;;;;10.93;7.45;;;19.60;99.90;;;;;;5089293;28;19924;-61
2023/08/16 07:55:49;;;;;;;15.60;7.80;;;19.60;99.90;;;;;;5064091;28;20066;-61
2023/08/16 07:58:15;;;;;;;15.85;7.43;;;19.60;99.90;;;;;;5073116;28;20040;-62
2023/08/16 08:00:42;;;;;;;12.95;7.40;;;19.80;99.90;;;;;;5073934;28;20036;-61
2023/08/16 08:03:09;;;;;;;14.05;6.97;;;20.00;99.90;;;;;;5076457;28;20043;-61
2023/08/16 08:05:35;;;;;;;12.70;6.15;;;20.70;99.90;;;;;;5073894;28;20131;-61
2023/08/16 08:08:01;;;;;;;11.48;5.07;;;21.90;99.90;;;;;;5068564;28;20177;-62
2023/08/16 08:10:27;;;;;;;9.82;5.07;;;22.40;99.90;;;;;;5085697;28;20043;-62
2023/08/16 08:12:52;;;;;;;17.25;5.13;;;22.90;99.90;;;;;;5079504;28;20044;-61
2023/08/16 08:15:18;;;;;;;11.32;5.45;;;24.00;99.90;;;;;;5065348;28;20066;-61
2023/08/16 08:17:45;;;;;;;12.65;5.45;;;24.90;99.90;;;;;;5067171;28;20044;-61
2023/08/16 08:20:14;;;;;;;14.05;5.60;;;25.00;99.90;;;;;;5064638;28;20040;-61
2023/08/16 08:22:39;;;;;;;9.82;4.35;;;25.10;99.90;;;;;;5064682;28;20041;-61
2023/08/16 08:25:06;;;;;;;9.45;4.97;;;25.80;99.90;;;;;;5065193;28;20040;-61
2023/08/16 08:27:32;;;;;;;12.15;6.40;;;25.60;99.90;;;;;;5067052;28;20051;-61
2023/08/16 08:29:57;;;;;;;8.27;5.38;;;24.60;99.90;;;;;;5067833;28;20044;-61
2023/08/16 08:32:23;;;;;;;9.18;5.35;;;24.70;99.90;;;;;;5063243;28;20719;-61
2023/08/16 08:34:48;;;;;;;13.27;6.22;;;24.90;99.90;;;;;;5077287;28;20040;-61
2023/08/16 08:37:14;;;;;;;9.70;5.93;;;24.70;99.90;;;;;;5074651;28;20036;-61
2023/08/16 08:39:40;;;;;;;8.90;5.68;;;23.80;99.90;;;;;;5076648;28;20116;-57
2023/08/16 08:42:09;;;;;;;10.98;5.93;;;23.40;99.90;;;;;;5072761;28;20559;-60
2023/08/16 08:44:36;;;;;;;11.38;7.28;;;23.10;99.90;;;;;;5070059;28;20078;-60
2023/08/16 08:47:05;;;;;;;12.55;6.63;;;22.80;99.90;;;;;;5065500;28;20204;-60
2023/08/16 08:49:36;;;;;;;13.48;8.20;;;22.40;99.90;;;;;;5066619;28;20081;-58
2023/08/16 08:52:03;;;;;;;14.95;8.18;;;21.90;99.90;;;;;;5076315;28;20036;-60
2023/08/16 08:54:29;;;;;;;10.88;6.65;;;21.60;99.90;;;;;;5075480;28;20036;-61
2023/08/16 08:56:56;;;;;;;13.82;7.28;;;21.40;99.90;;;;;;5064650;28;20204;-59
2023/08/16 08:59:22;;;;;;;15.82;7.60;;;21.20;99.90;;;;;;5075931;28;20110;-61
2023/08/16 09:01:50;;;;;;;14.38;8.50;;;21.10;99.90;;;;;;5063900;28;20463;-61
2023/08/16 09:04:17;;;;;;;11.38;7.03;;;21.00;99.90;;;;;;5065256;28;20039;-61
2023/08/16 09:06:44;;;;;;;12.70;6.13;;;21.00;99.90;;;;;;5074260;28;20047;-61
2023/08/16 09:09:11;;;;;;;12.15;7.55;;;21.00;99.90;;;;;;5083150;28;20032;-61
2023/08/16 09:11:36;;;;;;;12.70;7.57;;;21.00;99.90;;;;;;5072748;28;20044;-62
2023/08/16 09:14:04;;;;;;;11.77;6.90;;;21.10;99.90;;;;;;5065604;28;20043;-62
2023/08/16 09:16:29;;;;;;;14.88;5.82;;;21.00;99.90;;;;;;5071991;28;20051;-61
2023/08/16 09:18:55;;;;;;;12.52;6.70;;;21.10;99.90;;;;;;5074483;28;20036;-59
2023/08/16 09:21:28;;;;;;;13.43;7.13;;;21.00;99.90;;;;;;5087132;28;20036;-60
2023/08/16 09:23:58;;;;;;;10.68;6.63;;;20.90;99.90;;;;;;5076735;28;20047;-60
2023/08/16 09:26:27;;;;;;;10.68;6.28;;;20.80;99.90;;;;;;5072860;28;20084;-60
2023/08/16 09:28:58;;;;;;;15.27;6.82;;;20.70;99.90;;;;;;5081219;28;20071;-57
2023/08/16 09:31:23;;;;;;;14.63;6.57;;;20.70;99.90;;;;;;5084358;28;20089;-59
2023/08/16 09:33:54;;;;;;;10.55;5.72;;;20.80;99.90;;;;;;5081267;28;20037;-59
2023/08/16 09:36:20;;;;;;;12.10;5.65;;;21.10;99.90;;;;;;5076691;28;20407;-59
2023/08/16 09:38:47;;;;;;;13.93;7.07;;;21.30;99.90;;;;;;5075300;28;20090;-59
2023/08/16 09:41:16;;;;;;;8.82;5.45;;;21.40;99.90;;;;;;5067093;28;20036;-60
2023/08/16 09:43:42;;;;;;;8.77;5.60;;;21.50;99.90;;;;;;5072509;28;20044;-61
2023/08/16 09:46:08;;;;;;;12.15;5.07;;;21.60;99.90;;;;;;5072778;28;20043;-61
2023/08/16 09:48:34;;;;;;;10.25;5.32;;;21.70;99.90;;;;;;5069635;28;20052;-60
2023/08/16 09:51:01;;;;;;;8.43;5.07;;;21.80;99.90;;;;;;5066372;28;20032;-60
2023/08/16 09:53:27;;;;;;;14.25;5.88;;;21.90;99.90;;;;;;5062663;28;20032;-59
2023/08/16 09:55:55;;;;;;;8.80;5.55;;;22.00;99.90;;;;;;5076542;28;20063;-59
2023/08/16 09:58:21;;;;;;;8.60;5.53;;;21.90;99.90;;;;;;5083763;28;20097;-60
2023/08/16 10:00:48;;;;;;;9.23;4.63;;;21.80;99.90;;;;;;5075948;28;20040;-60
2023/08/16 10:03:15;;;;;;;10.55;5.18;;;21.70;99.90;;;;;;5090535;28;20130;-60
2023/08/16 10:05:41;;;;;;;10.45;6.07;;;21.80;99.90;;;;;;5079277;28;20044;-62
2023/08/16 10:08:09;;;;;;;12.15;5.82;;;21.90;99.90;;;;;;5067849;28;20119;-62
2023/08/16 10:10:35;;;;;;;11.95;5.05;;;22.00;99.90;;;;;;5066854;28;20568;-61
2023/08/16 10:13:03;;;;;;;9.05;5.20;;;22.00;99.90;;;;;;5079410;28;20118;-64
2023/08/16 10:15:34;;;;;;;11.90;5.72;;;21.80;99.90;;;;;;5075321;28;20052;-59
2023/08/16 10:18:02;;;;;;;8.23;5.25;;;21.60;99.90;;;;;;5070087;28;20082;-62
2023/08/16 10:20:35;;;;;;;10.38;5.22;;;21.50;99.90;;;;;;5071624;28;20033;-60
2023/08/16 10:23:02;;;;;;;9.70;5.82;;;21.40;99.90;;;;;;5074304;28;20346;-60
2023/08/16 10:25:36;;;;;;;10.90;5.55;;;21.30;99.90;;;;;;5053367;28;20037;-62
2023/08/16 10:28:03;;;;;;;10.55;5.50;;;21.30;99.90;;;;;;5070178;28;20052;-61
2023/08/16 10:30:31;;;;;;;12.05;5.60;;;21.60;99.90;;;;;;5068389;28;20573;-60
2023/08/16 10:33:05;;;;;;;9.63;4.72;;;21.70;99.90;;;;;;5072213;28;20044;-61
2023/08/16 10:35:33;;;;;;;7.88;4.25;;;21.60;99.90;;;;;;5070387;28;20538;-60
2023/08/16 10:37:59;;;;;;;6.65;4.57;;;21.60;99.90;;;;;;5074957;28;20045;-61
2023/08/16 10:40:24;;;;;;;8.38;5.18;;;21.80;99.90;;;;;;5070786;28;20028;-60
2023/08/16 10:42:58;;;;;;;8.18;4.93;;;22.00;99.90;;;;;;5069082;28;20044;-59
2023/08/16 10:45:34;;;;;;;9.18;5.20;;;22.20;99.90;;;;;;5070511;28;20040;-59
2023/08/16 10:48:17;;;;;;;6.22;3.67;;;22.30;99.90;;;;;;5073330;28;20032;-59
2023/08/16 10:50:44;;;;;;;8.10;4.25;;;22.20;99.90;;;;;;5069365;28;20036;-61
2023/08/16 10:53:09;;;;;;;8.23;4.55;;;22.20;99.90;;;;;;5071454;28;20033;-60
2023/08/16 10:55:35;;;;;;;8.63;4.18;;;22.20;99.90;;;;;;5066801;28;20041;-61
2023/08/16 10:58:02;;;;;;;5.32;3.50;;;22.00;99.90;;;;;;5082651;28;20035;-61
2023/08/16 11:00:39;;;;;;;5.57;3.28;;;21.80;99.90;;;;;;5073428;28;20037;-61
2023/08/16 11:03:18;;;;;;;8.35;3.80;;;21.80;99.90;;;;;;5072893;28;20044;-61
2023/08/16 11:05:44;;;;;;;6.68;3.50;;;21.80;99.90;;;;;;5072318;28;20783;-61
2023/08/16 11:08:10;;;;;;;5.60;3.67;;;21.80;99.90;;;;;;5082176;28;20047;-61
2023/08/16 11:10:37;;;;;;;5.90;3.83;;;21.90;99.90;;;;;;5081482;28;20639;-61
2023/08/16 11:13:08;;;;;;;4.57;3.42;;;21.80;99.90;;;;;;5062657;28;20037;-60
2023/08/16 11:15:35;;;;;;;5.97;3.53;;;21.80;99.90;;;;;;5061893;28;20118;-61
2023/08/16 11:18:00;;;;;;;7.57;3.20;;;21.80;99.90;;;;;;5078125;28;20611;-61
2023/08/16 11:20:29;;;;;;;8.75;3.70;;;21.70;99.90;;;;;;5070361;28;20180;-62
2023/08/16 11:22:55;;;;;;;7.47;3.65;;;22.00;99.90;;;;;;5076659;28;20048;-59
2023/08/16 11:25:21;;;;;;;5.38;3.20;;;22.20;99.90;;;;;;5069748;28;20121;-60
2023/08/16 11:27:47;;;;;;;3.42;2.88;;;22.30;99.90;;;;;;5073571;28;20078;-60
2023/08/16 11:30:13;;;;;;;4.38;3.03;;;22.30;99.90;;;;;;5076768;28;20492;-61
2023/08/16 11:32:40;;;;;;;4.90;3.15;;;22.20;99.90;;;;;;5078785;28;20044;-62
2023/08/16 11:35:07;;;;;;;3.60;2.80;;;22.30;99.90;;;;;;5066990;28;20043;-62
2023/08/16 11:37:33;;;;;;;4.45;2.63;;;22.50;99.90;;;;;;5065787;28;20044;-61
2023/08/16 11:40:00;;;;;;;3.63;2.15;;;22.50;99.90;;;;;;5071476;28;20074;-63
2023/08/16 11:42:28;;;;;;;4.28;3.20;;;22.50;99.90;;;;;;5063193;28;20074;-61
2023/08/16 11:44:54;;;;;;;5.93;2.85;;;22.40;99.90;;;;;;5073298;28;20048;-62
2023/08/16 11:47:20;;;;;;;4.25;2.65;;;22.50;99.90;;;;;;5073230;28;20039;-60
2023/08/16 11:49:48;;;;;;;6.25;2.92;;;22.50;99.90;;;;;;5071961;28;20089;-62
2023/08/16 11:52:19;;;;;;;7.07;2.78;;;22.50;99.90;;;;;;5076877;28;20060;-62
2023/08/16 11:54:44;;;;;;;3.30;2.70;;;22.60;99.90;;;;;;5082832;28;20444;-60
2023/08/16 11:57:18;;;;;;;5.43;3.20;;;22.70;99.90;;;;;;5075237;28;20033;-62
2023/08/16 11:59:55;;;;;;;6.45;4.00;;;22.70;99.90;;;;;;5063457;28;20071;-62
2023/08/16 12:02:23;;;;;;;4.90;3.15;;;22.40;99.90;;;;;;5063631;28;20094;-60
2023/08/16 12:04:49;;;;;;;5.88;3.05;;;22.30;99.90;;;;;;5065352;28;20121;-61
2023/08/16 12:07:14;;;;;;;6.22;3.42;;;22.40;99.90;;;;;;5067900;28;20051;-61
2023/08/16 12:09:40;;;;;;;5.68;3.88;;;22.80;99.90;;;;;;5063548;28;20036;-61
2023/08/16 12:12:08;;;;;;;6.60;3.40;;;23.10;99.90;;;;;;5061672;28;20105;-62
2023/08/16 12:14:33;;;;;;;5.18;3.30;;;23.40;99.90;;;;;;5080762;28;20046;-61
2023/08/16 12:17:00;;;;;;;6.80;2.92;;;23.60;99.90;;;;;;5077896;28;20127;-60
2023/08/16 12:19:25;;;;;;;4.18;2.88;;;23.60;99.90;;;;;;5073283;28;20041;-61
2023/08/16 12:21:52;;;;;;;4.38;3.55;;;23.60;99.90;;;;;;5075603;28;20055;-62
2023/08/16 12:24:19;;;;;;;5.95;3.15;;;23.70;99.90;;;;;;5085663;28;20036;-62
2023/08/16 12:26:45;;;;;;;11.43;3.90;;;23.80;99.90;;;;;;5069117;28;20045;-61
2023/08/16 12:29:10;;;;;;;6.72;3.30;;;23.90;99.90;;;;;;5074223;28;20048;-60
2023/08/16 12:31:36;;;;;;;7.32;3.60;;;24.10;99.90;;;;;;5069532;28;20408;-61
2023/08/16 12:34:02;;;;;;;6.82;3.72;;;24.20;99.90;;;;;;5068443;28;20028;-61
2023/08/16 12:36:28;;;;;;;9.52;4.03;;;24.30;99.90;;;;;;5077009;28;20455;-62
2023/08/16 12:38:53;;;;;;;6.25;3.20;;;24.10;99.90;;;;;;5075165;28;20544;-59
2023/08/16 12:41:19;;;;;;;4.97;3.28;;;23.90;99.90;;;;;;5073264;28;20032;-62
2023/08/16 12:43:44;;;;;;;6.60;3.35;;;23.70;99.90;;;;;;5072598;28;20041;-61
2023/08/16 12:46:10;;;;;;;4.82;3.50;;;23.60;99.90;;;;;;5073209;28;20048;-62
2023/08/16 12:48:36;;;;;;;7.78;4.60;;;23.40;99.90;;;;;;5075105;28;20029;-61
2023/08/16 12:51:02;;;;;;;5.35;3.85;;;23.20;99.90;;;;;;5071730;28;20067;-60
2023/08/16 12:53:31;;;;;;;5.60;3.70;;;23.10;99.90;;;;;;5060087;28;20515;-60